Time;durP1;ratioP1;P1;durP2;ratioP2;P2;SDS_P1;SDS_P2;PMS_P1;PMS_P2;Temp;Humidity;BMP_temperature;BMP_pressure;BME280_temperature;BME280_humidity;BME280_pressure;Samples;Min_cycle;Max_cycle;Signal;HPM_P1;HPM_P2
2023/03/09 00:01:53;;;;;;;;;24.75;20.00;;;;;5.82;100.00;96222.28;4834498;28;103997;-72
2023/03/09 00:04:21;;;;;;;;;24.00;22.75;;;;;5.85;100.00;96221.00;4837325;28;103746;-72
2023/03/09 00:06:48;;;;;;;;;26.50;23.75;;;;;5.90;100.00;96228.41;4839749;28;106578;-72
2023/03/09 00:09:15;;;;;;;;;29.00;23.00;;;;;5.96;100.00;96222.91;4838619;28;102004;-72
2023/03/09 00:11:44;;;;;;;;;25.50;21.00;;;;;6.02;100.00;96219.31;4844366;28;104189;-72
2023/03/09 00:14:13;;;;;;;;;25.00;20.50;;;;;6.07;100.00;96219.44;4842379;29;102018;-72
2023/03/09 00:16:41;;;;;;;;;24.00;18.75;;;;;6.13;100.00;96217.69;4841132;29;102518;-72
2023/03/09 00:19:08;;;;;;;;;22.75;20.50;;;;;6.14;100.00;96220.16;4838601;28;102145;-72
2023/03/09 00:21:36;;;;;;;;;16.00;12.00;;;;;6.20;100.00;96224.59;4821740;29;104047;-73
2023/03/09 00:24:06;;;;;;;;;19.75;18.00;;;;;6.24;100.00;96222.25;4840986;29;102207;-72
2023/03/09 00:26:36;;;;;;;;;18.25;14.50;;;;;6.27;100.00;96230.66;4824989;29;103060;-72
2023/03/09 00:29:03;;;;;;;;;4.50;2.00;;;;;6.29;100.00;96222.38;4837109;28;110951;-73
2023/03/09 00:31:30;;;;;;;;;22.50;16.25;;;;;6.28;100.00;96226.13;4837527;28;104053;-73
2023/03/09 00:33:57;;;;;;;;;18.25;14.00;;;;;6.23;100.00;96213.38;4837204;29;102223;-72
2023/03/09 00:36:24;;;;;;;;;17.50;16.00;;;;;6.27;100.00;96221.78;4835430;28;103653;-72
2023/03/09 00:38:53;;;;;;;;;18.25;14.25;;;;;6.29;100.00;96217.03;4839304;28;102118;-72
2023/03/09 00:41:22;;;;;;;;;15.25;14.50;;;;;6.30;100.00;96220.53;4837738;29;104007;-72
2023/03/09 00:43:49;;;;;;;;;17.00;14.00;;;;;6.26;100.00;96215.59;4841416;29;103048;-73
2023/03/09 00:46:16;;;;;;;;;14.25;12.50;;;;;6.30;100.00;96217.84;4838300;28;102080;-73
2023/03/09 00:48:43;;;;;;;;;14.00;11.50;;;;;6.32;100.00;96221.09;4843400;28;111831;-72
2023/03/09 00:51:10;;;;;;;;;13.75;13.00;;;;;6.36;100.00;96222.25;4840215;29;108662;-72
2023/03/09 00:53:38;;;;;;;;;12.75;11.00;;;;;6.37;100.00;96222.03;4839811;29;102066;-73
2023/03/09 00:56:12;;;;;;;;;16.50;12.00;;;;;6.39;100.00;96235.22;4835611;28;102020;-73
2023/03/09 00:58:39;;;;;;;;;11.00;7.75;;;;;6.37;100.00;96213.16;4841415;29;102179;-73
2023/03/09 01:01:08;;;;;;;;;10.00;7.75;;;;;6.42;100.00;96216.78;4838774;29;104034;-72
2023/03/09 01:03:36;;;;;;;;;8.25;7.00;;;;;6.43;100.00;96207.69;4838843;29;102053;-73
2023/03/09 01:06:04;;;;;;;;;9.25;7.50;;;;;6.42;100.00;96207.91;4835789;28;102905;-73
2023/03/09 01:08:33;;;;;;;;;8.25;7.00;;;;;6.46;100.00;96209.09;4838205;29;102572;-72
2023/03/09 01:11:00;;;;;;;;;9.00;6.00;;;;;6.46;100.00;96199.16;4835762;28;104024;-73
2023/03/09 01:13:27;;;;;;;;;6.25;5.00;;;;;6.48;100.00;96209.69;4834137;28;102367;-72
2023/03/09 01:15:54;;;;;;;;;9.50;5.00;;;;;6.42;100.00;96189.94;4835202;28;102388;-73
2023/03/09 01:18:21;;;;;;;;;4.00;4.00;;;;;6.50;100.00;96202.19;4837489;29;102814;-73
2023/03/09 01:20:48;;;;;;;;;4.00;3.25;;;;;6.51;100.00;96193.09;4840513;28;105516;-73
2023/03/09 01:23:15;;;;;;;;;5.25;3.25;;;;;6.51;100.00;96193.09;4839277;29;102410;-72
2023/03/09 01:25:42;;;;;;;;;4.00;3.00;;;;;6.51;100.00;96187.72;4840060;29;102662;-73
2023/03/09 01:28:10;;;;;;;;;3.25;2.00;;;;;6.54;100.00;96181.88;4840365;28;102155;-73
2023/03/09 01:30:38;;;;;;;;;2.75;1.75;;;;;6.28;100.00;96145.59;4838770;29;104083;-73
2023/03/09 01:33:05;;;;;;;;;2.75;2.75;;;;;6.53;100.00;96180.28;4839466;28;102139;-73
2023/03/09 01:35:32;;;;;;;;;1.75;1.25;;;;;6.56;100.00;96185.16;4837423;28;102096;-73
2023/03/09 01:37:59;;;;;;;;;3.00;2.00;;;;;6.55;100.00;96183.53;4839086;29;102076;-73
2023/03/09 01:40:27;;;;;;;;;4.00;2.00;;;;;6.55;100.00;96172.78;4839365;29;104041;-73
2023/03/09 01:43:21;;;;;;;;;1.00;1.00;;;;;6.52;100.00;96170.56;4838884;28;102997;-73
2023/03/09 01:45:48;;;;;;;;;1.00;1.00;;;;;6.55;100.00;96178.16;4834199;28;102430;-73
2023/03/09 01:48:15;;;;;;;;;1.00;1.00;;;;;6.45;100.00;96162.63;4841804;29;102876;-73
2023/03/09 01:50:42;;;;;;;;;1.25;1.00;;;;;6.50;100.00;96165.44;4836350;29;104174;-72
2023/03/09 01:53:17;;;;;;;;;2.50;1.00;;;;;6.49;100.00;96168.34;4841485;29;102551;-73
2023/03/09 01:55:48;;;;;;;;;2.00;1.00;;;;;6.51;100.00;96166.25;4834943;28;102604;-72
2023/03/09 01:58:21;;;;;;;;;0.50;0.00;;;;;6.50;100.00;96160.06;4839731;28;102426;-72
2023/03/09 02:00:53;;;;;;;;;1.00;1.00;;;;;6.48;100.00;96156.81;4835125;29;104042;-73
2023/03/09 02:03:48;;;;;;;;;2.25;2.00;;;;;6.48;100.00;96148.75;4836843;28;101885;-73
2023/03/09 02:06:20;;;;;;;;;2.00;2.00;;;;;6.50;100.00;96149.31;4827851;28;101884;-73
2023/03/09 02:09:27;;;;;;;;;0.50;0.50;;;;;6.49;100.00;96158.41;4841058;28;102815;-73
2023/03/09 02:12:20;;;;;;;;;1.50;0.00;;;;;6.50;100.00;96153.88;4840051;28;108546;-73
2023/03/09 02:15:07;;;;;;;;;1.25;1.25;;;;;6.48;100.00;96150.63;4838169;28;102394;-73
2023/03/09 02:17:53;;;;;;;;;2.00;1.25;;;;;6.47;100.00;96165.09;4842355;29;102076;-73
2023/03/09 02:20:55;;;;;;;;;1.50;1.00;;;;;6.46;100.00;96158.91;4844932;28;102027;-72
2023/03/09 02:23:50;;;;;;;;;1.75;1.00;;;;;6.43;100.00;96142.47;4839067;29;107764;-73
2023/03/09 02:26:31;;;;;;;;;1.00;1.00;;;;;6.40;100.00;96149.09;4822881;29;102014;-72
2023/03/09 02:28:58;;;;;;;;;0.25;0.25;;;;;6.41;100.00;96160.66;4842654;29;102290;-72
2023/03/09 02:31:25;;;;;;;;;3.00;1.00;;;;;6.40;100.00;96153.63;4839641;28;102175;-72
2023/03/09 02:33:52;;;;;;;;;1.00;1.00;;;;;6.38;100.00;96150.41;4840968;28;104251;-73
2023/03/09 02:36:20;;;;;;;;;0.00;0.00;;;;;6.36;100.00;96147.13;4840244;29;102074;-72
2023/03/09 02:38:47;;;;;;;;;1.75;1.50;;;;;6.40;100.00;96154.47;4842847;29;102542;-72
2023/03/09 02:41:14;;;;;;;;;2.00;2.00;;;;;6.41;100.00;96153.41;4842286;28;106065;-71
2023/03/09 02:43:52;;;;;;;;;6.25;3.00;;;;;6.34;100.00;96133.13;4844275;29;104186;-73
2023/03/09 02:46:19;;;;;;;;;7.25;5.75;;;;;6.42;100.00;96147.00;4835739;28;102144;-72
2023/03/09 02:48:46;;;;;;;;;9.75;8.00;;;;;6.32;100.00;96130.66;4840255;29;102246;-73
2023/03/09 02:51:13;;;;;;;;;8.00;8.00;;;;;6.43;100.00;96142.47;4838436;28;102142;-73
2023/03/09 02:53:40;;;;;;;;;7.50;6.75;;;;;6.46;100.00;96136.59;4842134;28;108753;-72
2023/03/09 02:56:08;;;;;;;;;16.75;14.00;;;;;6.40;100.00;96126.81;4838125;28;102455;-72
2023/03/09 02:58:35;;;;;;;;;13.00;11.75;;;;;6.48;100.00;96139.88;4842307;28;103223;-72
2023/03/09 03:01:02;;;;;;;;;10.50;10.50;;;;;6.50;100.00;96137.78;4841599;28;102141;-73
2023/03/09 03:03:29;;;;;;;;;16.75;9.75;;;;;6.52;100.00;96146.41;4839968;29;103725;-72
2023/03/09 03:05:57;;;;;;;;;12.50;10.25;;;;;6.54;100.00;96144.28;4838264;28;102134;-72
2023/03/09 03:08:24;;;;;;;;;12.00;9.75;;;;;6.51;100.00;96129.50;4841419;28;102030;-73
2023/03/09 03:11:03;;;;;;;;;11.75;11.50;;;;;6.41;100.00;96115.84;4840532;28;102086;-73
2023/03/09 03:13:30;;;;;;;;;9.00;8.00;;;;;6.52;100.00;96131.13;4840199;29;104037;-72
2023/03/09 03:15:59;;;;;;;;;13.25;9.25;;;;;6.55;100.00;96130.66;4839690;29;102085;-72
2023/03/09 03:18:26;;;;;;;;;8.25;8.00;;;;;6.46;100.00;96104.41;4841772;29;102141;-72
2023/03/09 03:20:53;;;;;;;;;7.00;4.00;;;;;6.56;100.00;96128.78;4839748;28;103314;-72
2023/03/09 03:23:20;;;;;;;;;6.50;6.00;;;;;6.59;100.00;96128.31;4841357;29;104041;-72
2023/03/09 03:25:47;;;;;;;;;6.00;6.00;;;;;6.61;100.00;96118.16;4841378;29;102222;-72
2023/03/09 03:28:15;;;;;;;;;6.00;4.00;;;;;6.63;100.00;96116.03;4828616;29;102562;-72
2023/03/09 03:30:42;;;;;;;;;4.00;3.50;;;;;6.66;100.00;96112.91;4841286;28;102254;-72
2023/03/09 03:33:08;;;;;;;;;5.00;3.00;;;;;6.61;100.00;96096.69;4840893;29;104142;-71
2023/03/09 03:35:35;;;;;;;;;4.75;4.25;;;;;6.69;100.00;96107.03;4839732;28;102414;-72
2023/03/09 03:38:02;;;;;;;;;3.50;3.00;;;;;6.67;100.00;96101.91;4838931;28;102477;-73
2023/03/09 03:40:29;;;;;;;;;7.00;6.25;;;;;6.65;100.00;96092.47;4842732;29;102742;-72
2023/03/09 03:42:56;;;;;;;;;4.00;3.00;;;;;6.63;100.00;96089.19;4839775;29;104009;-73
2023/03/09 03:45:25;;;;;;;;;6.50;5.00;;;;;6.65;100.00;96087.91;4838006;29;102231;-73
2023/03/09 03:47:52;;;;;;;;;5.75;3.75;;;;;6.63;100.00;96095.38;4839017;29;102083;-72
2023/03/09 03:50:19;;;;;;;;;2.75;2.75;;;;;6.60;100.00;96100.41;4824893;29;102282;-72
2023/03/09 03:52:46;;;;;;;;;2.75;2.00;;;;;6.61;100.00;96096.69;4837715;28;104449;-71
2023/03/09 03:55:13;;;;;;;;;4.00;4.00;;;;;6.61;100.00;96102.03;4842717;29;102159;-73
2023/03/09 03:57:40;;;;;;;;;3.75;3.75;;;;;6.54;100.00;96090.59;4838985;28;102846;-73
2023/03/09 04:00:10;;;;;;;;;3.50;2.00;;;;;6.58;100.00;96089.06;4841253;29;102075;-72
2023/03/09 04:02:38;;;;;;;;;4.00;2.50;;;;;6.58;100.00;96099.81;4836253;28;104027;-73
2023/03/09 04:05:06;;;;;;;;;3.00;2.00;;;;;6.57;100.00;96100.88;4841213;29;102704;-73
2023/03/09 04:07:34;;;;;;;;;3.50;2.75;;;;;6.53;100.00;96099.75;4840682;28;102365;-73
2023/03/09 04:10:01;;;;;;;;;3.50;3.50;;;;;6.52;100.00;96104.28;4839715;28;102222;-72
2023/03/09 04:12:28;;;;;;;;;6.00;4.00;;;;;6.52;100.00;96112.34;4838053;28;104767;-72
2023/03/09 04:14:55;;;;;;;;;4.50;2.25;;;;;6.54;100.00;96112.09;4837767;29;102296;-71
2023/03/09 04:17:22;;;;;;;;;4.50;3.75;;;;;6.51;100.00;96108.00;4839245;29;102690;-72
2023/03/09 04:19:48;;;;;;;;;5.00;4.00;;;;;6.49;100.00;96103.91;4842301;29;102566;-72
2023/03/09 04:22:15;;;;;;;;;3.00;3.00;;;;;6.51;100.00;96104.50;4840129;28;104820;-71
2023/03/09 04:24:42;;;;;;;;;4.25;2.25;;;;;6.52;100.00;96103.47;4840635;28;102174;-72
2023/03/09 04:27:09;;;;;;;;;3.00;3.00;;;;;6.51;100.00;96101.81;4835221;28;102070;-72
2023/03/09 04:29:36;;;;;;;;;5.75;4.00;;;;;6.51;100.00;96101.81;4842859;28;102353;-73
2023/03/09 04:32:03;;;;;;;;;6.75;6.50;;;;;6.48;100.00;96092.38;4839546;28;103949;-72
2023/03/09 04:34:30;;;;;;;;;6.00;5.00;;;;;6.45;100.00;96097.38;4842514;28;102440;-72
2023/03/09 04:36:57;;;;;;;;;6.25;6.00;;;;;6.49;100.00;96090.50;4839190;28;102243;-72
2023/03/09 04:39:24;;;;;;;;;6.50;4.50;;;;;6.47;100.00;96081.88;4842547;29;101998;-72
2023/03/09 04:41:51;;;;;;;;;6.75;6.00;;;;;6.49;100.00;96090.50;4839802;29;104031;-72
2023/03/09 04:44:18;;;;;;;;;5.00;4.00;;;;;6.50;100.00;96084.91;4840461;28;102184;-72
2023/03/09 04:46:45;;;;;;;;;9.25;5.50;;;;;6.52;100.00;96082.81;4840928;28;102078;-72
2023/03/09 04:49:12;;;;;;;;;6.75;4.50;;;;;6.51;100.00;96078.50;4836388;29;102602;-72
2023/03/09 04:51:39;;;;;;;;;5.50;3.00;;;;;6.55;100.00;96078.81;4840510;29;104090;-72
2023/03/09 04:54:06;;;;;;;;;4.50;3.50;;;;;6.57;100.00;96085.59;4840012;29;106338;-73
2023/03/09 04:56:33;;;;;;;;;4.00;3.00;;;;;6.58;100.00;96078.34;4838591;28;102159;-72
2023/03/09 04:59:00;;;;;;;;;10.50;6.75;;;;;6.61;100.00;96077.88;4837736;28;102031;-71
2023/03/09 05:01:27;;;;;;;;;5.25;4.00;;;;;6.62;100.00;96063.38;4838133;29;103982;-72
2023/03/09 05:03:54;;;;;;;;;5.50;4.00;;;;;6.65;100.00;96063.75;4836932;29;101929;-72
2023/03/09 05:06:21;;;;;;;;;4.00;3.00;;;;;6.70;100.00;96065.72;4838148;28;101974;-72
2023/03/09 05:08:48;;;;;;;;;2.50;2.50;;;;;6.72;100.00;96055.53;4843425;28;102075;-72
2023/03/09 05:11:15;;;;;;;;;4.00;3.50;;;;;6.76;100.00;96070.09;4839892;29;108714;-72
2023/03/09 05:13:42;;;;;;;;;3.00;2.00;;;;;6.78;100.00;96068.00;4838751;29;102134;-72
2023/03/09 05:16:09;;;;;;;;;3.25;2.25;;;;;6.80;100.00;96070.47;4836131;28;102290;-72
2023/03/09 05:18:36;;;;;;;;;4.00;2.25;;;;;6.81;100.00;96064.84;4842107;29;102318;-72
2023/03/09 05:21:07;;;;;;;;;3.00;3.00;;;;;6.84;100.00;96066.25;4837201;28;103840;-72
2023/03/09 05:23:35;;;;;;;;;1.75;1.75;;;;;6.80;100.00;96051.69;4839868;29;102355;-72
2023/03/09 05:26:06;;;;;;;;;2.00;2.00;;;;;6.79;100.00;96052.72;4839298;28;102902;-72
2023/03/09 05:28:35;;;;;;;;;1.75;1.50;;;;;6.78;100.00;96051.91;4843048;29;102618;-72
2023/03/09 05:31:06;;;;;;;;;3.75;3.00;;;;;6.76;100.00;96051.31;4845322;28;104009;-72
2023/03/09 05:33:33;;;;;;;;;1.00;1.00;;;;;6.83;100.00;96057.38;4840760;29;102180;-72
2023/03/09 05:36:00;;;;;;;;;2.50;2.00;;;;;6.87;100.00;96069.25;4836379;28;101936;-73
2023/03/09 05:38:27;;;;;;;;;1.75;1.75;;;;;6.87;100.00;96055.84;4843854;29;101989;-73
2023/03/09 05:40:54;;;;;;;;;2.00;2.00;;;;;6.86;100.00;96058.75;4847971;28;103408;-73
2023/03/09 05:43:21;;;;;;;;;1.00;1.00;;;;;6.88;100.00;96065.53;4843036;29;103561;-73
2023/03/09 05:45:55;;;;;;;;;1.00;1.00;;;;;6.89;100.00;96064.44;4843245;28;102098;-73
2023/03/09 05:48:22;;;;;;;;;1.75;1.75;;;;;6.90;100.00;96060.72;4841274;29;102173;-73
2023/03/09 05:50:49;;;;;;;;;1.00;1.00;;;;;6.91;100.00;96066.91;4845671;29;104258;-73
2023/03/09 05:53:16;;;;;;;;;2.50;1.75;;;;;6.86;100.00;96046.13;4841803;28;102174;-73
2023/03/09 05:55:43;;;;;;;;;6.25;4.00;;;;;6.95;100.00;96055.44;4839760;28;103863;-73
2023/03/09 05:58:10;;;;;;;;;3.75;3.25;;;;;6.90;100.00;96046.47;4844166;29;102409;-71
2023/03/09 06:00:37;;;;;;;;;5.00;5.00;;;;;7.00;100.00;96052.03;4841877;28;104011;-71
2023/03/09 06:03:04;;;;;;;;;6.25;6.00;;;;;6.97;100.00;96053.34;4841407;29;102337;-71
2023/03/09 06:05:31;;;;;;;;;2.00;1.25;;;;;7.02;100.00;96058.81;4840015;29;102103;-71
2023/03/09 06:07:58;;;;;;;;;3.50;3.50;;;;;6.94;100.00;96051.13;4843792;28;102452;-72
2023/03/09 06:10:25;;;;;;;;;3.75;2.75;;;;;7.05;100.00;96063.69;4840546;28;104193;-72
2023/03/09 06:12:52;;;;;;;;;2.75;2.00;;;;;6.95;100.00;96042.00;4841780;29;102406;-72
2023/03/09 06:15:19;;;;;;;;;3.00;3.00;;;;;6.99;100.00;96053.91;4842093;29;102453;-72
2023/03/09 06:17:46;;;;;;;;;5.00;3.75;;;;;7.11;100.00;96051.97;4843734;28;102312;-72
2023/03/09 06:20:13;;;;;;;;;4.25;3.75;;;;;7.17;100.00;96052.88;4839628;28;104167;-72
2023/03/09 06:22:40;;;;;;;;;5.25;4.50;;;;;7.27;100.00;96049.56;4842202;29;104637;-72
2023/03/09 06:25:08;;;;;;;;;4.00;4.00;;;;;7.36;100.00;96042.72;4840337;29;102314;-72
2023/03/09 06:27:35;;;;;;;;;2.50;2.00;;;;;7.36;100.00;96037.34;4840970;28;102592;-72
2023/03/09 06:30:02;;;;;;;;;6.00;3.75;;;;;7.51;100.00;96040.31;4841956;29;103657;-72
2023/03/09 06:32:33;;;;;;;;;2.50;2.25;;;;;7.59;100.00;96048.78;4839277;29;102155;-72
2023/03/09 06:35:00;;;;;;;;;3.00;3.00;;;;;7.68;100.00;96042.97;4841295;29;103608;-72
2023/03/09 06:37:27;;;;;;;;;1.00;1.00;;;;;7.74;100.00;96048.22;4839199;28;102107;-72
2023/03/09 06:39:54;;;;;;;;;1.50;1.00;;;;;7.78;100.00;96046.66;4840214;29;104005;-72
2023/03/09 06:42:21;;;;;;;;;1.50;1.25;;;;;7.85;100.00;96044.59;4837587;28;101993;-71
2023/03/09 06:44:49;;;;;;;;;1.00;1.00;;;;;7.90;100.00;96041.97;4841404;28;102738;-72
2023/03/09 06:47:16;;;;;;;;;1.00;1.00;;;;;7.93;100.00;96029.91;4841090;29;102588;-72
2023/03/09 06:49:43;;;;;;;;;3.50;3.00;;;;;7.92;100.00;96026.41;4839986;29;104187;-72
2023/03/09 06:52:10;;;;;;;;;2.00;2.00;;;;;7.98;100.00;96041.56;4833262;28;102350;-72
2023/03/09 06:54:38;;;;;;;;;7.00;5.75;;;;;7.70;100.00;95995.16;4840869;28;102047;-72
2023/03/09 06:57:05;;;;;;;;;5.00;5.00;;;;;8.00;100.00;96026.00;4840344;28;102301;-73
2023/03/09 06:59:33;;;;;;;;;7.00;5.00;;;;;7.97;100.00;96021.09;4841329;29;103983;-75
2023/03/09 07:02:00;;;;;;;;;5.00;4.00;;;;;7.77;100.00;95976.97;4841515;28;102976;-73
2023/03/09 07:04:27;;;;;;;;;11.00;9.00;;;;;8.03;100.00;96030.88;4842567;29;102393;-71
2023/03/09 07:06:54;;;;;;;;;8.00;6.00;;;;;8.14;100.00;96025.63;4824626;28;102258;-72
2023/03/09 07:09:21;;;;;;;;;9.75;7.75;;;;;8.14;100.00;96028.31;4838780;28;104301;-72
2023/03/09 07:11:48;;;;;;;;;6.50;5.75;;;;;8.15;99.68;96027.28;4843840;28;102802;-72
2023/03/09 07:14:15;;;;;;;;;4.75;4.75;;;;;8.11;100.00;96018.84;4840443;29;102549;-72
2023/03/09 07:16:42;;;;;;;;;7.25;5.00;;;;;8.08;99.16;96022.06;4838390;28;102080;-72
2023/03/09 07:19:10;;;;;;;;;6.75;6.00;;;;;8.11;99.92;96026.13;4832629;28;104367;-73
2023/03/09 07:21:36;;;;;;;;;6.75;6.75;;;;;8.16;100.00;96023.50;4840792;28;102282;-73
2023/03/09 07:24:04;;;;;;;;;7.50;7.00;;;;;8.14;99.55;96021.06;4835607;28;101983;-73
2023/03/09 07:26:31;;;;;;;;;6.75;4.50;;;;;8.16;99.60;96012.72;4839544;28;102576;-72
2023/03/09 07:28:57;;;;;;;;;3.00;2.00;;;;;8.01;99.78;95987.25;4839623;28;104075;-73
2023/03/09 07:31:24;;;;;;;;;3.00;3.00;;;;;8.19;100.00;96004.19;4833430;28;102327;-72
2023/03/09 07:33:51;;;;;;;;;5.00;4.25;;;;;8.24;100.00;96009.63;4840283;29;102109;-72
2023/03/09 07:36:18;;;;;;;;;7.50;6.50;;;;;8.30;100.00;96003.25;4839816;29;103561;-73
2023/03/09 07:38:47;;;;;;;;;4.50;2.75;;;;;8.34;99.64;95994.44;4838029;29;109001;-72
2023/03/09 07:41:14;;;;;;;;;4.00;3.50;;;;;8.39;100.00;95988.28;4839345;29;102215;-72
2023/03/09 07:43:43;;;;;;;;;2.25;2.00;;;;;8.44;99.59;95996.44;4842370;28;101878;-73
2023/03/09 07:46:12;;;;;;;;;3.00;3.00;;;;;8.43;99.66;95992.94;4842476;29;102404;-73
2023/03/09 07:48:40;;;;;;;;;6.00;3.75;;;;;8.44;99.13;96001.81;4839948;29;103769;-74
2023/03/09 07:51:07;;;;;;;;;3.50;3.00;;;;;8.40;99.10;96000.69;4840056;29;102150;-72
2023/03/09 07:53:36;;;;;;;;;6.00;4.00;;;;;8.31;99.50;95994.94;4825378;29;102421;-73
2023/03/09 07:56:04;;;;;;;;;4.50;3.25;;;;;8.33;99.53;96014.34;4842897;28;102280;-73
2023/03/09 07:58:32;;;;;;;;;5.00;4.75;;;;;8.26;99.50;96021.75;4843305;28;104018;-73
2023/03/09 08:01:00;;;;;;;;;5.00;5.00;;;;;8.20;100.00;96025.44;4843844;28;102246;-72
2023/03/09 08:03:28;;;;;;;;;8.75;8.25;;;;;8.13;100.00;96024.81;4841525;28;101939;-72
2023/03/09 08:05:55;;;;;;;;;13.50;9.25;;;;;8.10;100.00;96025.31;4826455;28;102350;-72
2023/03/09 08:08:24;;;;;;;;;8.50;6.50;;;;;8.06;100.00;96027.69;4840462;28;104259;-71
2023/03/09 08:10:52;;;;;;;;;8.25;7.50;;;;;8.04;100.00;96029.81;4843683;28;102265;-72
2023/03/09 08:13:21;;;;;;;;;8.00;4.75;;;;;8.01;100.00;96032.97;4845249;28;102021;-72
2023/03/09 08:15:49;;;;;;;;;10.00;8.00;;;;;8.06;100.00;96029.53;4847178;28;102370;-72
2023/03/09 08:18:17;;;;;;;;;6.50;4.00;;;;;8.08;100.00;96022.88;4843243;28;108678;-72
2023/03/09 08:20:44;;;;;;;;;4.00;3.00;;;;;8.15;100.00;96030.75;4842240;28;102205;-72
2023/03/09 08:23:11;;;;;;;;;9.75;6.75;;;;;8.19;100.00;96026.53;4848472;28;102100;-73
2023/03/09 08:25:39;;;;;;;;;10.25;8.00;;;;;8.22;100.00;96017.13;4844664;28;102092;-72
2023/03/09 08:28:06;;;;;;;;;8.00;7.75;;;;;8.25;100.00;96022.00;4839907;28;104407;-72
2023/03/09 08:30:33;;;;;;;;;13.75;10.50;;;;;8.35;100.00;96027.56;4841562;28;102347;-72
2023/03/09 08:33:00;;;;;;;;;8.25;8.25;;;;;8.36;100.00;96026.50;4841201;28;102064;-71
2023/03/09 08:35:32;;;;;;;;;11.00;9.00;;;;;8.36;100.00;96016.53;4842249;28;102217;-71
2023/03/09 08:38:00;;;;;;;;;13.00;10.75;;;;;8.51;100.00;96023.97;4841551;28;104083;-72
2023/03/09 08:40:27;;;;;;;;;8.25;7.00;;;;;8.52;100.00;96029.13;4843148;28;102114;-72
2023/03/09 08:42:54;;;;;;;;;12.75;11.75;;;;;8.51;100.00;96026.66;4844175;28;102016;-72
2023/03/09 08:45:21;;;;;;;;;13.75;12.00;;;;;8.49;100.00;96024.25;4845543;28;102072;-72
2023/03/09 08:47:48;;;;;;;;;14.25;11.00;;;;;8.50;100.00;96030.44;4507728;28;10000411;-73
2023/03/09 08:50:16;;;;;;;;;12.50;10.00;;;;;8.51;100.00;96027.50;4842661;28;103937;-72
2023/03/09 08:52:43;;;;;;;;;10.00;8.50;;;;;8.52;100.00;96028.31;4846836;28;102115;-72
2023/03/09 08:55:11;;;;;;;;;18.75;14.00;;;;;8.52;100.00;96025.63;4843731;28;102105;-73
2023/03/09 08:57:38;;;;;;;;;9.50;8.75;;;;;8.57;100.00;96039.13;4829304;29;102099;-73
2023/03/09 09:00:08;;;;;;;;;15.00;11.75;;;;;8.58;100.00;96029.19;4840457;28;104033;-72
2023/03/09 09:02:35;;;;;;;;;15.00;10.00;;;;;8.64;100.00;96031.69;4842013;29;102014;-74
2023/03/09 09:05:03;;;;;;;;;12.75;10.50;;;;;8.67;100.00;96031.19;4845471;29;102527;-73
2023/03/09 09:07:30;;;;;;;;;13.50;12.75;;;;;8.78;100.00;96035.59;4845888;29;102413;-74
2023/03/09 09:09:58;;;;;;;;;14.25;10.00;;;;;8.90;100.00;96041.69;4840963;28;104196;-73
2023/03/09 09:12:32;;;;;;;;;8.25;7.75;;;;;8.98;100.00;96032.34;4843841;28;102072;-73
2023/03/09 09:14:59;;;;;;;;;14.25;13.50;;;;;9.01;100.00;96041.78;4843201;29;102199;-74
2023/03/09 09:17:25;;;;;;;;;12.75;8.00;;;;;9.09;100.00;96038.66;4844697;29;102439;-71
2023/03/09 09:19:52;;;;;;;;;9.50;9.50;;;;;9.14;100.00;96044.88;4843066;28;104228;-71
2023/03/09 09:22:19;;;;;;;;;14.00;13.25;;;;;9.01;100.00;96041.78;4847245;28;102087;-73
2023/03/09 09:24:46;;;;;;;;;10.50;9.25;;;;;9.06;100.00;96045.34;4843133;28;111858;-74
2023/03/09 09:27:14;;;;;;;;;13.50;10.00;;;;;9.07;100.00;96048.88;4842528;29;102167;-73
2023/03/09 09:29:41;;;;;;;;;11.50;8.50;;;;;9.12;100.00;96046.22;4842586;29;104156;-72
2023/03/09 09:32:09;;;;;;;;;10.25;9.00;;;;;9.10;100.00;96029.47;4842336;29;102291;-72
2023/03/09 09:34:36;;;;;;;;;11.50;9.00;;;;;9.20;100.00;96051.16;4841661;29;102048;-72
2023/03/09 09:37:05;;;;;;;;;8.75;7.50;;;;;9.22;100.00;96043.63;4844320;29;102119;-71
2023/03/09 09:39:33;;;;;;;;;12.50;11.50;;;;;9.16;100.00;96042.75;4841823;29;104033;-71
2023/03/09 09:42:06;;;;;;;;;9.00;8.25;;;;;9.22;100.00;96049.03;4843424;29;101961;-71
2023/03/09 09:44:40;;;;;;;;;10.00;9.50;;;;;9.25;99.84;96049.31;4843312;29;102140;-71
2023/03/09 09:47:18;;;;;;;;;10.25;8.00;;;;;9.28;100.00;96048.00;4843911;28;102607;-71
2023/03/09 09:49:48;;;;;;;;;10.50;10.00;;;;;9.26;100.00;96056.34;4838919;28;105063;-72
2023/03/09 09:52:21;;;;;;;;;11.00;8.75;;;;;9.34;100.00;96057.75;4841179;29;102088;-72
2023/03/09 09:54:58;;;;;;;;;8.25;8.25;;;;;9.34;99.10;96063.97;4839454;28;102483;-72
2023/03/09 09:57:36;;;;;;;;;8.75;8.00;;;;;9.46;100.00;96060.28;4841994;29;102324;-72
2023/03/09 10:00:29;;;;;;;;;9.50;8.00;;;;;9.49;100.00;96071.41;4842679;28;104187;-72
2023/03/09 10:03:08;;;;;;;;;13.25;12.75;;;;;9.42;98.06;96062.69;4836587;29;102004;-72
2023/03/09 10:05:44;;;;;;;;;17.00;13.25;;;;;9.44;97.92;96078.63;4842347;29;102221;-72
2023/03/09 10:08:35;;;;;;;;;17.75;14.00;;;;;9.15;98.31;96037.63;4843508;28;102187;-72
2023/03/09 10:11:20;;;;;;;;;12.00;10.50;;;;;9.57;96.93;96079.03;4841666;28;109291;-72
2023/03/09 10:13:53;;;;;;;;;15.50;12.50;;;;;9.51;98.11;96079.22;4841906;29;102279;-72
2023/03/09 10:16:25;;;;;;;;;17.75;14.00;;;;;9.45;98.86;96089.16;4843956;29;102070;-72
2023/03/09 10:19:07;;;;;;;;;10.25;9.00;;;;;9.72;98.04;96086.44;4842506;28;101994;-72
2023/03/09 10:21:40;;;;;;;;;10.75;9.25;;;;;9.56;97.51;96092.75;4840168;29;103981;-72
2023/03/09 10:24:59;;;;;;;;;9.00;9.00;;;;;9.75;96.01;96100.22;4841591;28;102187;-74
2023/03/09 10:28:00;;;;;;;;;9.00;6.75;;;;;10.00;95.88;96106.88;4785671;29;102067;-71
2023/03/09 10:30:34;;;;;;;;;12.00;9.00;;;;;10.22;94.50;96115.75;4829368;29;102492;-72
2023/03/09 10:33:16;;;;;;;;;15.50;11.00;;;;;9.93;93.63;96109.00;4842441;29;104062;-71
2023/03/09 10:35:58;;;;;;;;;9.50;8.25;;;;;10.14;93.54;96125.09;4840917;28;102229;-72
2023/03/09 10:38:25;;;;;;;;;10.00;8.75;;;;;9.97;91.60;96089.34;4823852;29;102032;-73
2023/03/09 10:40:54;;;;;;;;;10.00;9.00;;;;;9.99;91.56;96134.97;4844496;28;102177;-72
2023/03/09 10:43:31;;;;;;;;;9.25;5.50;;;;;9.98;91.28;96141.44;4840881;29;108718;-72
2023/03/09 10:46:10;;;;;;;;;7.00;7.00;;;;;9.81;92.63;96150.50;4843096;28;101933;-72
2023/03/09 10:48:37;;;;;;;;;6.00;6.00;;;;;9.58;94.04;96148.09;4843023;28;102395;-72
2023/03/09 10:51:06;;;;;;;;;8.50;7.25;;;;;9.58;92.63;96161.59;4845093;29;101962;-71
2023/03/09 10:53:49;;;;;;;;;9.50;8.50;;;;;9.53;93.78;96169.63;4843524;28;104183;-71
2023/03/09 10:56:21;;;;;;;;;12.75;11.25;;;;;9.24;96.14;96170.91;4842793;28;102159;-71
2023/03/09 10:59:13;;;;;;;;;13.50;11.00;;;;;9.22;96.89;96191.94;4849294;28;102522;-72
2023/03/09 11:01:43;;;;;;;;;11.50;10.75;;;;;9.01;97.20;96208.88;4846213;28;102498;-71
2023/03/09 11:04:22;;;;;;;;;13.75;9.50;;;;;9.04;96.86;96208.41;4843536;28;104348;-72
2023/03/09 11:07:02;;;;;;;;;11.00;9.50;;;;;9.14;97.90;96219.31;4845597;28;101883;-72
2023/03/09 11:09:36;;;;;;;;;11.25;7.25;;;;;8.91;97.83;96218.50;4847825;28;101961;-71
2023/03/09 11:12:21;;;;;;;;;9.75;8.75;;;;;8.82;98.12;96233.47;4845791;28;106287;-72
2023/03/09 11:14:55;;;;;;;;;8.00;7.75;;;;;8.58;99.06;96236.56;4841260;28;108655;-71
2023/03/09 11:17:38;;;;;;;;;11.00;9.50;;;;;8.55;100.00;96259.44;4845506;28;101909;-72
2023/03/09 11:20:20;;;;;;;;;9.50;8.50;;;;;8.62;99.74;96249.31;4842131;28;101982;-71
2023/03/09 11:22:59;;;;;;;;;13.25;9.25;;;;;8.74;100.00;96252.72;4837919;28;102068;-72
2023/03/09 11:26:03;;;;;;;;;10.50;9.00;;;;;8.63;100.00;96256.31;4841281;28;108683;-72
2023/03/09 11:29:01;;;;;;;;;10.00;8.75;;;;;8.55;100.00;96248.66;4839824;28;102372;-71
2023/03/09 11:31:39;;;;;;;;;10.50;8.50;;;;;8.51;100.00;96275.25;4838465;28;102160;-72
2023/03/09 11:34:13;;;;;;;;;7.75;7.00;;;;;8.52;100.00;96271.50;4835900;28;102280;-71
2023/03/09 11:36:52;;;;;;;;;4.00;3.25;;;;;8.62;99.96;96270.84;4844147;28;104450;-72